createdAt,value
2016-12-09T00:00:20.792Z,8.36
2016-12-09T00:01:20.778Z,8.28
2016-12-09T00:02:20.756Z,8.33
2016-12-09T00:03:20.738Z,8.32
2016-12-09T00:04:20.723Z,8.29
2016-12-09T00:05:20.729Z,8.25
2016-12-09T00:06:20.687Z,8.25
2016-12-09T00:07:20.677Z,8.22
2016-12-09T00:08:20.658Z,8.22
2016-12-09T00:09:21.042Z,8.26
2016-12-09T00:10:20.627Z,8.28
2016-12-09T00:11:20.601Z,8.25
2016-12-09T00:12:20.584Z,8.32
2016-12-09T00:13:20.566Z,8.3
2016-12-09T00:14:20.544Z,8.25
2016-12-09T00:15:20.526Z,8.26
2016-12-09T00:16:20.509Z,8.29
2016-12-09T00:17:20.489Z,8.33
2016-12-09T00:18:20.480Z,8.29
2016-12-09T00:19:20.453Z,8.42
2016-12-09T00:20:20.752Z,8.33
2016-12-09T00:21:20.420Z,8.36
2016-12-09T00:22:20.451Z,8.22
2016-12-09T00:23:20.392Z,8.32
2016-12-09T00:24:20.371Z,8.36
2016-12-09T00:25:20.350Z,8.32
2016-12-09T00:26:20.338Z,8.39
2016-12-09T00:27:20.629Z,8.29
2016-12-09T00:28:20.613Z,8.33
2016-12-09T00:29:20.329Z,8.33
2016-12-09T00:30:20.261Z,8.35
2016-12-09T00:31:20.299Z,8.37
2016-12-09T00:32:20.544Z,8.4
2016-12-09T00:33:20.213Z,8.35
2016-12-09T00:34:20.189Z,8.35
2016-12-09T00:35:20.178Z,8.39
2016-12-09T00:36:20.158Z,8.33
2016-12-09T00:37:20.144Z,8.37
2016-12-09T00:38:20.439Z,8.39
2016-12-09T00:39:20.106Z,8.39
2016-12-09T00:40:20.716Z,8.35
2016-12-09T00:41:20.072Z,8.35
2016-12-09T00:42:20.364Z,8.42
2016-12-09T00:43:20.662Z,8.33
2016-12-09T00:44:20.016Z,8.4
2016-12-09T00:45:20.001Z,8.42
2016-12-09T00:46:19.983Z,8.35
2016-12-09T00:47:19.964Z,8.45
2016-12-09T00:48:19.947Z,8.37
2016-12-09T00:49:19.932Z,8.45
2016-12-09T00:50:19.910Z,8.45
2016-12-09T00:51:19.896Z,8.45
2016-12-09T00:52:19.877Z,8.44
2016-12-09T00:53:19.859Z,8.47
2016-12-09T00:54:20.166Z,8.48
2016-12-09T00:55:19.838Z,8.45
2016-12-09T00:56:20.135Z,8.44
2016-12-09T00:57:20.102Z,8.48
2016-12-09T00:58:19.774Z,8.48
2016-12-09T00:59:19.763Z,8.4
2016-12-09T01:00:19.741Z,8.39
2016-12-09T01:01:19.719Z,8.45
2016-12-09T01:02:20.062Z,8.57
2016-12-09T01:03:19.995Z,8.54
2016-12-09T01:04:19.666Z,8.53
2016-12-09T01:05:19.649Z,8.6
2016-12-09T01:06:19.631Z,8.5
2016-12-09T01:07:19.609Z,8.47
2016-12-09T01:08:19.920Z,8.5
2016-12-09T01:09:19.889Z,8.47
2016-12-09T01:10:19.871Z,8.58
2016-12-09T01:11:19.543Z,8.6
2016-12-09T01:12:19.836Z,8.55
2016-12-09T01:13:19.515Z,8.54
2016-12-09T01:14:19.490Z,8.57
2016-12-09T01:15:19.476Z,8.58
2016-12-09T01:16:19.459Z,8.6
2016-12-09T01:17:19.438Z,8.57
2016-12-09T01:18:19.416Z,8.55
2016-12-09T01:19:19.453Z,8.58
2016-12-09T01:20:19.384Z,8.54
2016-12-09T01:21:19.368Z,8.63
2016-12-09T01:22:19.663Z,8.55
2016-12-09T01:23:19.334Z,8.62
2016-12-09T01:24:19.313Z,8.62
2016-12-09T01:25:19.294Z,8.65
2016-12-09T01:26:19.282Z,8.54
2016-12-09T01:27:19.262Z,8.58
2016-12-09T01:28:19.251Z,8.6
2016-12-09T01:29:19.542Z,8.62
2016-12-09T01:30:19.286Z,8.6
2016-12-09T01:31:19.195Z,8.68
2016-12-09T01:32:19.179Z,8.58
2016-12-09T01:33:19.163Z,8.62
2016-12-09T01:34:19.140Z,8.62
2016-12-09T01:35:19.124Z,8.68
2016-12-09T01:36:19.418Z,8.58
2016-12-09T01:37:19.091Z,8.66
2016-12-09T01:38:19.073Z,8.63
2016-12-09T01:39:19.056Z,8.57
2016-12-09T01:40:19.040Z,8.65
2016-12-09T01:41:19.021Z,8.58
2016-12-09T01:42:19.024Z,8.62
2016-12-09T01:43:18.995Z,8.69
2016-12-09T01:44:19.281Z,8.58
2016-12-09T01:45:18.955Z,8.62
2016-12-09T01:46:19.250Z,8.58
2016-12-09T01:47:19.230Z,8.71
2016-12-09T01:48:18.900Z,8.55
2016-12-09T01:49:18.883Z,8.69
2016-12-09T01:50:18.870Z,8.65
2016-12-09T01:51:18.844Z,8.58
2016-12-09T01:52:19.144Z,8.55
2016-12-09T01:53:18.817Z,8.72
2016-12-09T01:54:18.794Z,8.55
2016-12-09T01:55:18.783Z,8.68
2016-12-09T01:56:18.770Z,8.62
2016-12-09T01:57:18.802Z,8.58
2016-12-09T01:58:18.733Z,8.68
2016-12-09T01:59:18.709Z,8.63
2016-12-09T02:00:19.004Z,8.6
2016-12-09T02:01:18.675Z,8.68
2016-12-09T02:02:18.656Z,8.66
2016-12-09T02:03:18.638Z,8.76
2016-12-09T02:04:18.623Z,8.65
2016-12-09T02:05:18.609Z,8.71
2016-12-09T02:06:18.902Z,8.75
2016-12-09T02:07:18.884Z,8.72
2016-12-09T02:08:18.557Z,8.73
2016-12-09T02:09:18.538Z,8.76
2016-12-09T02:10:18.534Z,8.72
2016-12-09T02:11:18.524Z,8.72
2016-12-09T02:12:18.488Z,8.79
2016-12-09T02:13:18.465Z,8.73
2016-12-09T02:14:18.472Z,8.79
2016-12-09T02:15:18.442Z,8.73
2016-12-09T02:16:18.417Z,8.72
2016-12-09T02:17:18.417Z,8.73
2016-12-09T02:18:18.389Z,8.71
2016-12-09T02:19:18.369Z,8.66
2016-12-09T02:20:18.347Z,8.55
2016-12-09T02:21:18.648Z,8.65
2016-12-09T02:22:18.316Z,8.55
2016-12-09T02:23:18.609Z,8.66
2016-12-09T02:24:18.276Z,8.6
2016-12-09T02:25:18.259Z,8.73
2016-12-09T02:26:18.241Z,8.69
2016-12-09T02:27:18.226Z,8.68
2016-12-09T02:28:18.206Z,8.72
2016-12-09T02:29:18.504Z,8.72
2016-12-09T02:30:18.197Z,8.71
2016-12-09T02:31:18.157Z,8.63
2016-12-09T02:32:18.136Z,8.66
2016-12-09T02:33:18.120Z,8.69
2016-12-09T02:34:18.100Z,8.72
2016-12-09T02:35:18.089Z,8.78
2016-12-09T02:36:18.063Z,8.71
2016-12-09T02:37:18.052Z,8.73
2016-12-09T02:38:18.031Z,8.79
2016-12-09T02:39:18.326Z,8.79
2016-12-09T02:40:18.001Z,8.72
2016-12-09T02:41:17.979Z,8.73
2016-12-09T02:42:17.961Z,8.73
2016-12-09T02:43:17.945Z,8.75
2016-12-09T02:44:17.925Z,8.78
2016-12-09T02:45:17.963Z,8.73
2016-12-09T02:46:17.896Z,8.73
2016-12-09T02:47:17.873Z,8.72
2016-12-09T02:48:18.173Z,8.72
2016-12-09T02:49:18.153Z,8.79
2016-12-09T02:50:17.820Z,8.69
2016-12-09T02:51:18.121Z,8.71
2016-12-09T02:52:17.789Z,8.81
2016-12-09T02:53:17.778Z,8.75
2016-12-09T02:54:17.758Z,8.76
2016-12-09T02:55:17.740Z,8.73
2016-12-09T02:56:17.722Z,8.81
2016-12-09T02:57:18.015Z,8.75
2016-12-09T02:58:18.001Z,8.71
2016-12-09T02:59:17.668Z,8.79
2016-12-09T03:00:17.966Z,8.72
2016-12-09T03:01:17.635Z,8.73
2016-12-09T03:02:17.617Z,8.76
2016-12-09T03:03:17.602Z,8.78
2016-12-09T03:04:17.587Z,8.75
2016-12-09T03:05:17.560Z,8.75
2016-12-09T03:06:17.545Z,8.72
2016-12-09T03:07:17.530Z,8.72
2016-12-09T03:08:17.514Z,8.72
2016-12-09T03:09:17.496Z,8.78
2016-12-09T03:10:17.483Z,8.78
2016-12-09T03:11:17.460Z,8.79
2016-12-09T03:12:17.442Z,8.73
2016-12-09T03:13:17.432Z,8.73
2016-12-09T03:14:17.410Z,8.71
2016-12-09T03:15:17.398Z,8.75
2016-12-09T03:16:17.379Z,8.71
2016-12-09T03:17:17.668Z,8.73
2016-12-09T03:18:17.652Z,8.72
2016-12-09T03:19:17.326Z,8.69
2016-12-09T03:20:17.308Z,8.6
2016-12-09T03:21:17.290Z,8.58
2016-12-09T03:22:17.271Z,8.57
2016-12-09T03:23:17.259Z,8.68
2016-12-09T03:24:17.251Z,8.68
2016-12-09T03:25:17.226Z,8.6
2016-12-09T03:26:17.205Z,8.62
2016-12-09T03:27:17.187Z,8.55
2016-12-09T03:28:17.165Z,8.62
2016-12-09T03:29:17.157Z,8.66
2016-12-09T03:30:17.187Z,8.65
2016-12-09T03:31:17.119Z,8.62
2016-12-09T03:32:17.152Z,8.62
2016-12-09T03:33:17.083Z,8.62
2016-12-09T03:34:17.071Z,8.63
2016-12-09T03:35:17.360Z,8.65
2016-12-09T03:36:17.343Z,8.58
2016-12-09T03:37:17.015Z,8.57
2016-12-09T03:38:16.996Z,8.58
2016-12-09T03:39:16.981Z,8.54
2016-12-09T03:40:17.281Z,8.57
2016-12-09T03:41:17.264Z,8.54
2016-12-09T03:42:16.935Z,8.45
2016-12-09T03:43:16.918Z,8.51
2016-12-09T03:44:17.209Z,8.48
2016-12-09T03:45:16.900Z,8.45
2016-12-09T03:46:16.867Z,8.45
2016-12-09T03:47:16.849Z,8.45
2016-12-09T03:48:16.833Z,8.48
2016-12-09T03:49:16.811Z,8.47
2016-12-09T03:50:16.798Z,8.39
2016-12-09T03:51:16.772Z,8.45
2016-12-09T03:52:17.384Z,8.48
2016-12-09T03:53:16.743Z,8.39
2016-12-09T03:54:17.124Z,8.36
2016-12-09T03:55:16.709Z,8.33
2016-12-09T03:56:16.691Z,8.33
2016-12-09T03:57:16.664Z,8.33
2016-12-09T03:58:16.988Z,8.29
2016-12-09T03:59:16.633Z,8.39
2016-12-09T04:00:16.931Z,8.33
2016-12-09T04:01:16.924Z,8.28
2016-12-09T04:02:16.914Z,8.35
2016-12-09T04:03:16.563Z,8.32
2016-12-09T04:04:16.548Z,8.26
2016-12-09T04:05:16.531Z,8.3
2016-12-09T04:06:16.845Z,8.32
2016-12-09T04:07:16.495Z,8.26
2016-12-09T04:08:16.474Z,8.18
2016-12-09T04:09:16.459Z,8.28
2016-12-09T04:10:16.643Z,8.18
2016-12-09T04:11:16.424Z,8.21
2016-12-09T04:12:16.403Z,8.3
2016-12-09T04:13:16.385Z,8.21
2016-12-09T04:14:16.367Z,8.18
2016-12-09T04:15:16.354Z,8.22
2016-12-09T04:16:16.332Z,8.22
2016-12-09T04:17:16.625Z,8.2
2016-12-09T04:18:16.301Z,8.21
2016-12-09T04:19:16.276Z,8.2
2016-12-09T04:20:16.266Z,8.25
2016-12-09T04:21:16.247Z,8.25
2016-12-09T04:22:16.225Z,8.25
2016-12-09T04:23:16.214Z,8.17
2016-12-09T04:24:16.189Z,8.22
2016-12-09T04:25:16.181Z,8.17
2016-12-09T04:26:16.164Z,8.08
2016-12-09T04:27:16.451Z,8.12
2016-12-09T04:28:16.126Z,8.17
2016-12-09T04:29:16.103Z,8.15
2016-12-09T04:30:16.088Z,8.15
2016-12-09T04:31:16.071Z,8.14
2016-12-09T04:32:16.051Z,8.15
2016-12-09T04:33:16.037Z,8.14
2016-12-09T04:34:16.015Z,8.18
2016-12-09T04:35:15.995Z,8.11
2016-12-09T04:36:15.977Z,8.14
2016-12-09T04:37:15.962Z,8.11
2016-12-09T04:38:15.944Z,8.14
2016-12-09T04:39:15.921Z,8.17
2016-12-09T04:40:15.909Z,8.15
2016-12-09T04:41:16.205Z,8.1
2016-12-09T04:42:15.873Z,8.12
2016-12-09T04:43:16.169Z,8.18
2016-12-09T04:44:15.844Z,8.15
2016-12-09T04:45:15.820Z,8.1
2016-12-09T04:46:15.803Z,8.18
2016-12-09T04:47:15.784Z,8.1
2016-12-09T04:48:15.769Z,8.11
2016-12-09T04:49:15.755Z,8.18
2016-12-09T04:50:15.730Z,8.08
2016-12-09T04:51:15.719Z,8.18
2016-12-09T04:52:15.695Z,8.08
2016-12-09T04:53:15.685Z,8.17
2016-12-09T04:54:15.671Z,8.03
2016-12-09T04:55:15.978Z,8.1
2016-12-09T04:56:15.637Z,8.07
2016-12-09T04:57:15.610Z,8.07
2016-12-09T04:58:15.597Z,8.08
2016-12-09T04:59:15.572Z,8.1
2016-12-09T05:00:15.555Z,8.07
2016-12-09T05:01:15.539Z,8.1
2016-12-09T05:02:15.513Z,8.08
2016-12-09T05:03:15.503Z,8.11
2016-12-09T05:04:15.510Z,8.17
2016-12-09T05:05:15.463Z,8.12
2016-12-09T05:06:15.450Z,8.14
2016-12-09T05:07:15.747Z,8.1
2016-12-09T05:08:15.722Z,8.11
2016-12-09T05:09:15.393Z,8.11
2016-12-09T05:10:15.383Z,8.03
2016-12-09T05:11:15.359Z,8.08
2016-12-09T05:12:15.341Z,8.12
2016-12-09T05:13:15.328Z,8.11
2016-12-09T05:14:15.306Z,8.12
2016-12-09T05:15:15.299Z,8.18
2016-12-09T05:16:15.279Z,8.11
2016-12-09T05:17:15.256Z,8.1
2016-12-09T05:18:15.566Z,8.14
2016-12-09T05:19:15.224Z,8.17
2016-12-09T05:20:15.206Z,8.15
2016-12-09T05:21:15.183Z,8.14
2016-12-09T05:22:15.220Z,8.12
2016-12-09T05:23:15.152Z,8.15
2016-12-09T05:24:15.128Z,8.14
2016-12-09T05:25:15.123Z,8.11
2016-12-09T05:26:15.094Z,8.12
2016-12-09T05:27:15.083Z,8.11
2016-12-09T05:28:15.063Z,8.15
2016-12-09T05:29:15.355Z,8.22
2016-12-09T05:30:15.339Z,8.17
2016-12-09T05:31:15.010Z,8.15
2016-12-09T05:32:14.993Z,8.15
2016-12-09T05:33:14.973Z,8.14
2016-12-09T05:34:14.955Z,8.12
2016-12-09T05:35:15.257Z,8.11
2016-12-09T05:36:14.926Z,8.11
2016-12-09T05:37:14.904Z,8.21
2016-12-09T05:38:15.210Z,8.15
2016-12-09T05:39:14.871Z,8.22
2016-12-09T05:40:14.847Z,8.18
2016-12-09T05:41:15.179Z,8.17
2016-12-09T05:42:14.837Z,8.28
2016-12-09T05:43:14.805Z,8.22
2016-12-09T05:44:14.787Z,8.25
2016-12-09T05:45:14.766Z,8.2
2016-12-09T05:46:14.749Z,8.18
2016-12-09T05:47:14.730Z,8.22
2016-12-09T05:48:14.713Z,8.2
2016-12-09T05:49:14.691Z,8.28
2016-12-09T05:50:14.679Z,8.15
2016-12-09T05:51:14.657Z,8.28
2016-12-09T05:52:14.654Z,8.18
2016-12-09T05:53:14.626Z,8.22
2016-12-09T05:54:14.922Z,8.26
2016-12-09T05:55:14.943Z,8.26
2016-12-09T05:56:14.889Z,8.2
2016-12-09T05:57:14.566Z,8.21
2016-12-09T05:58:14.534Z,8.21
2016-12-09T05:59:14.522Z,8.35
2016-12-09T06:00:14.499Z,8.25
2016-12-09T06:01:14.796Z,8.25
2016-12-09T06:02:14.465Z,8.29
2016-12-09T06:03:14.449Z,8.22
2016-12-09T06:04:14.431Z,8.32
2016-12-09T06:05:14.415Z,8.35
2016-12-09T06:06:14.393Z,8.32
2016-12-09T06:07:14.375Z,8.26
2016-12-09T06:08:14.369Z,8.35
2016-12-09T06:09:14.347Z,8.3
2016-12-09T06:10:14.853Z,8.35
2016-12-09T06:11:14.624Z,8.28
2016-12-09T06:12:14.291Z,8.21
2016-12-09T06:13:14.276Z,8.17
2016-12-09T06:14:14.251Z,8.33
2016-12-09T06:15:14.247Z,8.33
2016-12-09T06:16:14.535Z,8.33
2016-12-09T06:17:14.205Z,8.3
2016-12-09T06:18:14.190Z,8.29
2016-12-09T06:19:14.195Z,8.39
2016-12-09T06:20:14.469Z,8.3
2016-12-09T06:21:14.127Z,8.33
2016-12-09T06:22:14.116Z,8.33
2016-12-09T06:23:14.408Z,8.35
2016-12-09T06:24:14.092Z,8.29
2016-12-09T06:25:14.379Z,8.3
2016-12-09T06:26:14.052Z,8.33
2016-12-09T06:27:14.036Z,8.32
2016-12-09T06:28:14.986Z,8.33
2016-12-09T06:29:14.003Z,8.39
2016-12-09T06:30:13.982Z,8.36
2016-12-09T06:31:13.957Z,8.33
2016-12-09T06:32:13.944Z,8.36
2016-12-09T06:33:14.249Z,8.32
2016-12-09T06:34:13.913Z,8.35
2016-12-09T06:35:13.893Z,8.37
2016-12-09T06:36:14.183Z,8.44
2016-12-09T06:37:14.173Z,8.47
2016-12-09T06:38:13.839Z,8.44
2016-12-09T06:39:13.819Z,8.48
2016-12-09T06:40:14.118Z,8.32
2016-12-09T06:41:13.784Z,8.39
2016-12-09T06:42:13.771Z,8.35
2016-12-09T06:43:13.755Z,8.4
2016-12-09T06:44:13.732Z,8.4
2016-12-09T06:45:13.722Z,8.39
2016-12-09T06:46:13.700Z,8.45
2016-12-09T06:47:13.688Z,8.37
2016-12-09T06:48:13.671Z,8.44
2016-12-09T06:49:13.646Z,8.44
2016-12-09T06:50:13.628Z,8.45
2016-12-09T06:51:14.240Z,8.44
2016-12-09T06:52:13.600Z,8.44
2016-12-09T06:53:13.583Z,8.44
2016-12-09T06:54:13.875Z,8.4
2016-12-09T06:55:13.860Z,8.54
2016-12-09T06:56:13.540Z,8.53
2016-12-09T06:57:13.514Z,8.54
2016-12-09T06:58:13.499Z,8.51
2016-12-09T06:59:13.476Z,8.5
2016-12-09T07:00:13.460Z,8.42
2016-12-09T07:01:13.442Z,8.42
2016-12-09T07:02:13.428Z,8.55
2016-12-09T07:03:13.407Z,8.54
2016-12-09T07:04:13.398Z,8.55
2016-12-09T07:05:13.693Z,8.6
2016-12-09T07:06:13.360Z,8.55
2016-12-09T07:07:13.653Z,8.53
2016-12-09T07:08:13.335Z,8.54
2016-12-09T07:09:13.307Z,8.53
2016-12-09T07:10:13.293Z,8.55
2016-12-09T07:11:13.272Z,8.57
2016-12-09T07:12:13.254Z,8.66
2016-12-09T07:13:13.241Z,8.65
2016-12-09T07:14:13.220Z,8.57
2016-12-09T07:15:13.202Z,8.66
2016-12-09T07:16:13.503Z,8.6
2016-12-09T07:17:13.171Z,8.58
2016-12-09T07:18:13.150Z,8.58
2016-12-09T07:19:13.136Z,8.58
2016-12-09T07:20:13.117Z,8.57
2016-12-09T07:21:13.132Z,8.63
2016-12-09T07:22:13.099Z,8.57
2016-12-09T07:23:13.068Z,8.55
2016-12-09T07:24:13.050Z,8.63
2016-12-09T07:25:13.037Z,8.62
2016-12-09T07:26:13.327Z,8.58
2016-12-09T07:27:12.999Z,8.55
2016-12-09T07:28:12.988Z,8.65
2016-12-09T07:29:12.968Z,8.69
2016-12-09T07:30:12.946Z,8.71
2016-12-09T07:31:12.935Z,8.69
2016-12-09T07:32:13.234Z,8.63
2016-12-09T07:33:12.902Z,8.68
2016-12-09T07:34:12.878Z,8.72
2016-12-09T07:35:12.863Z,8.73
2016-12-09T07:36:12.844Z,8.71
2016-12-09T07:37:12.833Z,8.78
2016-12-09T07:38:12.858Z,8.79
2016-12-09T07:39:12.789Z,8.72
2016-12-09T07:40:12.786Z,8.69
2016-12-09T07:41:12.755Z,8.71
2016-12-09T07:42:12.749Z,8.75
2016-12-09T07:43:12.724Z,8.72
2016-12-09T07:44:12.704Z,8.75
2016-12-09T07:45:12.689Z,8.71
2016-12-09T07:46:12.670Z,8.72
2016-12-09T07:47:12.654Z,8.76
2016-12-09T07:48:12.953Z,8.76
2016-12-09T07:49:12.620Z,8.78
2016-12-09T07:50:12.602Z,8.78
2016-12-09T07:51:12.589Z,8.73
2016-12-09T07:52:12.572Z,8.78
2016-12-09T07:53:12.861Z,8.86
2016-12-09T07:54:12.563Z,8.86
2016-12-09T07:55:12.531Z,8.87
2016-12-09T07:56:12.502Z,8.84
2016-12-09T07:57:12.799Z,8.86
2016-12-09T07:58:12.474Z,8.76
2016-12-09T07:59:12.456Z,8.88
2016-12-09T08:00:12.431Z,8.83
2016-12-09T08:01:12.417Z,8.88
2016-12-09T08:02:12.404Z,8.84
2016-12-09T08:03:12.408Z,8.83
2016-12-09T08:04:12.375Z,8.84
2016-12-09T08:05:12.349Z,8.79
2016-12-09T08:06:12.333Z,8.91
2016-12-09T08:07:12.632Z,8.87
2016-12-09T08:08:12.660Z,8.91
2016-12-09T08:09:12.275Z,8.97
2016-12-09T08:10:12.467Z,8.84
2016-12-09T08:11:12.242Z,8.91
2016-12-09T08:12:12.230Z,8.96
2016-12-09T08:13:12.209Z,8.96
2016-12-09T08:14:12.196Z,8.91
2016-12-09T08:15:12.179Z,8.94
2016-12-09T08:16:12.165Z,8.94
2016-12-09T08:17:12.150Z,8.97
2016-12-09T08:18:12.131Z,8.93
2016-12-09T08:19:12.424Z,9.09
2016-12-09T08:20:12.094Z,8.93
2016-12-09T08:21:12.080Z,8.93
2016-12-09T08:22:12.063Z,8.96
2016-12-09T08:23:12.367Z,8.96
2016-12-09T08:24:12.082Z,8.93
2016-12-09T08:25:12.020Z,8.87
2016-12-09T08:26:12.624Z,8.94
2016-12-09T08:27:11.984Z,8.9
2016-12-09T08:28:11.967Z,8.91
2016-12-09T08:29:11.945Z,8.94
2016-12-09T08:30:11.929Z,8.97
2016-12-09T08:31:11.915Z,8.96
2016-12-09T08:32:11.904Z,8.94
2016-12-09T08:33:11.877Z,8.94
2016-12-09T08:34:11.868Z,8.99
2016-12-09T08:35:11.849Z,9.02
2016-12-09T08:36:11.827Z,9.04
2016-12-09T08:37:11.872Z,9.04
2016-12-09T08:38:11.812Z,9.09
2016-12-09T08:39:12.420Z,9.13
2016-12-09T08:40:11.768Z,9.12
2016-12-09T08:41:11.752Z,9.06
2016-12-09T08:42:11.739Z,9.02
2016-12-09T08:43:11.721Z,9.02
2016-12-09T08:44:11.703Z,9.09
2016-12-09T08:45:11.743Z,9.16
2016-12-09T08:46:11.985Z,9.13
2016-12-09T08:47:11.964Z,9.16
2016-12-09T08:48:11.636Z,9.16
2016-12-09T08:49:11.621Z,9.2
2016-12-09T08:50:11.917Z,9.18
2016-12-09T08:51:11.585Z,9.21
2016-12-09T08:52:11.960Z,9.27
2016-12-09T08:53:11.559Z,9.15
2016-12-09T08:54:11.554Z,9.28
2016-12-09T08:55:11.533Z,9.31
2016-12-09T08:56:11.510Z,9.31
2016-12-09T08:57:11.501Z,9.34
2016-12-09T08:58:11.472Z,9.38
2016-12-09T08:59:11.772Z,9.38
2016-12-09T09:00:11.777Z,9.38
2016-12-09T09:01:11.427Z,9.39
2016-12-09T09:02:11.463Z,9.48
2016-12-09T09:03:11.394Z,9.39
2016-12-09T09:04:11.386Z,9.42
2016-12-09T09:05:11.364Z,9.4
2016-12-09T09:06:11.342Z,9.49
2016-12-09T09:07:11.654Z,9.42
2016-12-09T09:08:11.313Z,9.53
2016-12-09T09:09:11.299Z,9.58
2016-12-09T09:10:11.280Z,9.58
2016-12-09T09:11:11.576Z,9.58
2016-12-09T09:12:11.246Z,9.68
2016-12-09T09:13:11.230Z,9.63
2016-12-09T09:14:11.215Z,9.67
2016-12-09T09:15:11.200Z,9.67
2016-12-09T09:16:11.193Z,9.61
2016-12-09T09:17:11.183Z,9.7
2016-12-09T09:18:11.162Z,9.68
2016-12-09T09:19:11.150Z,9.73
2016-12-09T09:20:11.441Z,9.68
2016-12-09T09:21:11.105Z,9.7
2016-12-09T09:22:11.083Z,9.7
2016-12-09T09:23:11.070Z,9.73
2016-12-09T09:24:11.056Z,9.68
2016-12-09T09:25:11.043Z,9.68
2016-12-09T09:26:11.021Z,9.73
2016-12-09T09:27:11.017Z,9.71
2016-12-09T09:28:11.331Z,9.81
2016-12-09T09:29:10.978Z,9.79
2016-12-09T09:30:11.269Z,9.73
2016-12-09T09:31:10.968Z,9.82
2016-12-09T09:32:10.931Z,9.82
2016-12-09T09:33:10.911Z,9.79
2016-12-09T09:34:10.889Z,9.91
2016-12-09T09:35:10.880Z,9.83
2016-12-09T09:36:10.865Z,9.83
2016-12-09T09:37:11.471Z,9.91
2016-12-09T09:38:10.833Z,10.03
2016-12-09T09:39:10.816Z,9.96
2016-12-09T09:40:10.799Z,10.03
2016-12-09T09:41:10.784Z,9.97
2016-12-09T09:42:11.079Z,9.89
2016-12-09T09:43:10.749Z,9.96
2016-12-09T09:44:10.750Z,9.89
2016-12-09T09:45:10.730Z,9.94
2016-12-09T09:46:10.733Z,9.89
2016-12-09T09:47:10.694Z,9.91
2016-12-09T09:48:10.999Z,9.89
2016-12-09T09:49:10.656Z,9.93
2016-12-09T09:50:10.643Z,10
2016-12-09T09:51:10.620Z,9.97
2016-12-09T09:52:10.926Z,9.88
2016-12-09T09:53:10.589Z,9.94
2016-12-09T09:54:10.587Z,9.91
2016-12-09T09:55:10.559Z,9.96
2016-12-09T09:56:11.169Z,9.97
2016-12-09T09:57:10.842Z,9.96
2016-12-09T09:58:10.513Z,9.96
2016-12-09T09:59:10.493Z,10.01
2016-12-09T10:00:10.793Z,10
2016-12-09T10:01:10.775Z,10
2016-12-09T10:02:10.450Z,9.99
2016-12-09T10:03:10.462Z,10.07
2016-12-09T10:04:10.419Z,10.03
2016-12-09T10:05:10.442Z,10.01
2016-12-09T10:06:10.410Z,10.01
2016-12-09T10:07:10.388Z,10.03
2016-12-09T10:08:10.666Z,10.03
2016-12-09T10:09:10.668Z,10.03
2016-12-09T10:10:10.540Z,10.03
2016-12-09T10:11:10.319Z,10.03
2016-12-09T10:12:10.292Z,10.1
2016-12-09T10:13:10.280Z,10.03
2016-12-09T10:14:10.266Z,10
2016-12-09T10:15:10.250Z,10.04
2016-12-09T10:16:10.258Z,10.06
2016-12-09T10:17:10.533Z,10.06
2016-12-09T10:18:10.516Z,10.06
2016-12-09T10:19:10.186Z,10.01
2016-12-09T10:20:10.481Z,10.07
2016-12-09T10:21:10.469Z,10
2016-12-09T10:22:10.142Z,10.01
2016-12-09T10:23:10.124Z,10.09
2016-12-09T10:24:10.103Z,10.01
2016-12-09T10:25:10.405Z,10.01
2016-12-09T10:26:10.078Z,10
2016-12-09T10:27:10.067Z,10
2016-12-09T10:28:10.045Z,9.99
2016-12-09T10:29:10.703Z,10.04
2016-12-09T10:30:10.326Z,10.06
2016-12-09T10:31:09.996Z,10.06
2016-12-09T10:32:09.977Z,10.06
2016-12-09T10:33:09.984Z,10.07
2016-12-09T10:34:09.947Z,10.09
2016-12-09T10:35:09.927Z,10.03
2016-12-09T10:36:10.235Z,10.06
2016-12-09T10:37:09.906Z,10.04
2016-12-09T10:38:09.884Z,10.04
2016-12-09T10:39:09.868Z,10.03
2016-12-09T10:40:10.163Z,10.04
2016-12-09T10:41:09.845Z,10.04
2016-12-09T10:42:09.822Z,10
2016-12-09T10:43:09.811Z,10.14
2016-12-09T10:44:09.801Z,10.17
2016-12-09T10:45:09.778Z,10.18
2016-12-09T10:46:09.760Z,10.19
2016-12-09T10:47:09.762Z,10.22
2016-12-09T10:48:09.730Z,10.19
2016-12-09T10:49:09.714Z,10.17
2016-12-09T10:50:09.696Z,10.24
2016-12-09T10:51:09.682Z,10.22
2016-12-09T10:52:09.668Z,10.21
2016-12-09T10:53:09.656Z,10.18
2016-12-09T10:54:09.636Z,10.17
2016-12-09T10:55:09.937Z,10.18
2016-12-09T10:56:09.612Z,10.21
2016-12-09T10:57:09.587Z,10.19
2016-12-09T10:58:09.885Z,10.21
2016-12-09T10:59:09.561Z,10.17
2016-12-09T11:00:09.860Z,10.19
2016-12-09T11:01:09.855Z,10.22
2016-12-09T11:02:09.508Z,10.25
2016-12-09T11:03:09.496Z,10.25
2016-12-09T11:04:09.485Z,10.28
2016-12-09T11:05:09.476Z,10.26
2016-12-09T11:06:09.768Z,10.25
2016-12-09T11:07:09.441Z,10.22
2016-12-09T11:08:09.743Z,10.28
2016-12-09T11:09:09.406Z,10.28
2016-12-09T11:10:09.713Z,10.24
2016-12-09T11:11:09.381Z,10.36
2016-12-09T11:12:09.988Z,10.28
2016-12-09T11:13:09.667Z,10.24
2016-12-09T11:14:09.644Z,10.32
2016-12-09T11:15:09.316Z,10.32
2016-12-09T11:16:09.296Z,10.34
2016-12-09T11:17:09.287Z,10.33
2016-12-09T11:18:09.267Z,10.26
2016-12-09T11:19:09.574Z,10.42
2016-12-09T11:20:09.239Z,10.34
2016-12-09T11:21:09.256Z,10.32
2016-12-09T11:22:09.521Z,10.34
2016-12-09T11:23:09.193Z,10.36
2016-12-09T11:24:09.491Z,10.37
2016-12-09T11:25:09.165Z,10.43
2016-12-09T11:26:09.144Z,10.42
2016-12-09T11:27:09.130Z,10.43
2016-12-09T11:28:09.426Z,10.37
2016-12-09T11:29:09.105Z,10.42
2016-12-09T11:30:09.399Z,10.37
2016-12-09T11:31:09.072Z,10.43
2016-12-09T11:32:09.688Z,10.4
2016-12-09T11:33:09.046Z,10.4
2016-12-09T11:34:09.028Z,10.39
2016-12-09T11:35:09.006Z,10.33
2016-12-09T11:36:08.993Z,10.36
2016-12-09T11:37:08.977Z,10.39
2016-12-09T11:38:08.964Z,10.39
2016-12-09T11:39:08.954Z,10.36
2016-12-09T11:40:09.256Z,10.36
2016-12-09T11:41:08.934Z,10.43
2016-12-09T11:42:08.906Z,10.34
2016-12-09T11:43:08.892Z,10.36
2016-12-09T11:44:08.872Z,10.4
2016-12-09T11:45:09.173Z,10.44
2016-12-09T11:46:09.159Z,10.43
2016-12-09T11:47:08.840Z,10.32
2016-12-09T11:48:08.812Z,10.36
2016-12-09T11:49:08.828Z,10.4
2016-12-09T11:50:08.790Z,10.39
2016-12-09T11:51:08.765Z,10.37
2016-12-09T11:52:09.118Z,10.36
2016-12-09T11:53:08.734Z,10.36
2016-12-09T11:54:09.114Z,10.36
2016-12-09T11:55:09.018Z,10.33
2016-12-09T11:56:08.692Z,10.3
2016-12-09T11:57:08.678Z,10.39
2016-12-09T11:58:08.975Z,10.37
2016-12-09T11:59:08.957Z,10.34
2016-12-09T12:00:08.630Z,10.42
2016-12-09T12:01:08.615Z,10.37
2016-12-09T12:02:08.595Z,10.4
2016-12-09T12:03:08.581Z,10.4
2016-12-09T12:04:08.566Z,10.39
2016-12-09T12:05:08.550Z,10.44
2016-12-09T12:06:08.533Z,10.51
2016-12-09T12:07:08.516Z,10.51
2016-12-09T12:08:08.816Z,10.46
2016-12-09T12:09:08.493Z,10.47
2016-12-09T12:10:08.681Z,10.53
2016-12-09T12:11:08.772Z,10.55
2016-12-09T12:12:08.448Z,10.47
2016-12-09T12:13:08.427Z,10.56
2016-12-09T12:14:08.412Z,10.52
2016-12-09T12:15:08.405Z,10.6
2016-12-09T12:16:08.695Z,10.62
2016-12-09T12:17:08.684Z,10.52
2016-12-09T12:18:08.352Z,10.56
2016-12-09T12:19:08.653Z,10.63
2016-12-09T12:20:08.325Z,10.62
2016-12-09T12:21:08.304Z,10.65
2016-12-09T12:22:08.291Z,10.76
2016-12-09T12:23:08.277Z,10.74
2016-12-09T12:24:08.292Z,10.7
2016-12-09T12:25:08.247Z,10.7
2016-12-09T12:26:08.231Z,10.7
2016-12-09T12:27:08.531Z,10.71
2016-12-09T12:28:08.203Z,10.68
2016-12-09T12:29:08.502Z,10.66
2016-12-09T12:30:08.488Z,10.73
2016-12-09T12:31:08.477Z,10.68
2016-12-09T12:32:08.156Z,10.77
2016-12-09T12:33:08.128Z,10.76
2016-12-09T12:34:08.118Z,10.76
2016-12-09T12:35:08.093Z,10.7
2016-12-09T12:36:08.082Z,10.73
2016-12-09T12:37:08.070Z,10.66
2016-12-09T12:38:08.049Z,10.7
2016-12-09T12:39:08.032Z,10.74
2016-12-09T12:40:08.019Z,10.66
2016-12-09T12:41:08.006Z,10.73
2016-12-09T12:42:07.991Z,10.74
2016-12-09T12:43:07.973Z,10.71
2016-12-09T12:44:07.966Z,10.66
2016-12-09T12:45:07.952Z,10.73
2016-12-09T12:46:07.931Z,10.73
2016-12-09T12:47:07.916Z,10.62
2016-12-09T12:48:07.897Z,10.73
2016-12-09T12:49:07.911Z,10.63
2016-12-09T12:50:07.871Z,10.76
2016-12-09T12:51:07.863Z,10.8
2016-12-09T12:52:07.838Z,10.66
2016-12-09T12:53:07.856Z,10.73
2016-12-09T12:54:07.811Z,10.7
2016-12-09T12:55:07.790Z,10.8
2016-12-09T12:56:07.779Z,10.78
2016-12-09T12:57:07.761Z,10.8
2016-12-09T12:58:07.758Z,10.78
2016-12-09T12:59:07.733Z,10.83
2016-12-09T13:00:07.717Z,10.89
2016-12-09T13:01:07.703Z,10.88
2016-12-09T13:02:07.685Z,10.86
2016-12-09T13:03:07.669Z,10.95
2016-12-09T13:04:08.385Z,10.96
2016-12-09T13:05:07.657Z,10.98
2016-12-09T13:06:07.631Z,11.01
2016-12-09T13:07:07.609Z,10.94
2016-12-09T13:08:07.592Z,10.98
2016-12-09T13:09:07.589Z,11.06
2016-12-09T13:10:07.561Z,11.07
2016-12-09T13:11:07.547Z,10.96
2016-12-09T13:12:07.590Z,11.02
2016-12-09T13:13:07.842Z,11.03
2016-12-09T13:14:07.518Z,11.03